Time;durP1;ratioP1;P1;durP2;ratioP2;P2;SDS_P1;SDS_P2;PMS_P1;PMS_P2;Temp;Humidity;BMP_temperature;BMP_pressure;BME280_temperature;BME280_humidity;BME280_pressure;Samples;Min_cycle;Max_cycle;Signal;HPM_P1;HPM_P2
2023/11/11 00:00:17;;;;;;;17.65;7.97;;;7.80;99.90;;;;;;4898052;29;22699;-74
2023/11/11 00:02:45;;;;;;;15.02;7.00;;;7.80;99.90;;;;;;4899852;28;20176;-74
2023/11/11 00:05:14;;;;;;;15.68;8.25;;;7.80;99.90;;;;;;4899777;29;20059;-74
2023/11/11 00:07:43;;;;;;;16.33;8.10;;;7.80;99.90;;;;;;4922192;28;20055;-73
2023/11/11 00:10:13;;;;;;;17.52;8.13;;;7.80;99.90;;;;;;4919340;28;20081;-75
2023/11/11 00:12:41;;;;;;;16.13;8.40;;;7.80;99.90;;;;;;4918113;28;20179;-75
2023/11/11 00:15:11;;;;;;;19.30;8.35;;;7.70;99.90;;;;;;4904536;28;20118;-75
2023/11/11 00:17:40;;;;;;;16.90;7.75;;;7.80;99.90;;;;;;4919056;28;20054;-75
2023/11/11 00:20:12;;;;;;;16.50;7.85;;;7.80;99.90;;;;;;4902762;29;20094;-75
2023/11/11 00:22:43;;;;;;;21.65;9.10;;;7.90;99.90;;;;;;4907639;28;20110;-75
2023/11/11 00:25:12;;;;;;;19.98;8.60;;;7.80;99.90;;;;;;4909680;28;20410;-75
2023/11/11 00:27:42;;;;;;;19.23;8.10;;;7.80;99.90;;;;;;4904975;29;20419;-75
2023/11/11 00:30:14;;;;;;;19.60;8.82;;;7.80;99.90;;;;;;4916941;28;20059;-75
2023/11/11 00:32:48;;;;;;;17.20;8.05;;;7.90;99.90;;;;;;4903532;29;20739;-75
2023/11/11 00:35:18;;;;;;;19.20;8.07;;;7.90;99.90;;;;;;4912820;28;20079;-75
2023/11/11 00:37:48;;;;;;;19.30;8.40;;;7.90;99.90;;;;;;4898180;28;20063;-75
2023/11/11 00:40:16;;;;;;;16.10;8.00;;;7.90;99.90;;;;;;4927666;28;20039;-75
2023/11/11 00:42:45;;;;;;;18.25;7.90;;;7.90;99.90;;;;;;4917346;28;22660;-75
2023/11/11 00:45:15;;;;;;;18.83;9.13;;;7.90;99.90;;;;;;4915307;28;20055;-75
2023/11/11 00:47:43;;;;;;;18.17;8.75;;;7.90;99.90;;;;;;4912388;28;20055;-75
2023/11/11 00:50:12;;;;;;;19.63;8.45;;;7.80;99.90;;;;;;4917225;28;20062;-75
2023/11/11 00:52:40;;;;;;;18.20;8.50;;;7.90;99.90;;;;;;4918535;28;20055;-75
2023/11/11 00:55:09;;;;;;;17.52;7.88;;;7.80;99.90;;;;;;4910221;29;20039;-75
2023/11/11 00:57:39;;;;;;;18.83;8.23;;;7.80;99.90;;;;;;4917129;28;20055;-75
2023/11/11 01:00:10;;;;;;;20.65;7.82;;;7.80;99.90;;;;;;4903460;28;20057;-75
2023/11/11 01:02:40;;;;;;;18.95;7.85;;;7.80;99.90;;;;;;4913155;29;20071;-76
2023/11/11 01:05:11;;;;;;;17.38;7.95;;;7.80;99.90;;;;;;4900637;29;20145;-76
2023/11/11 01:07:40;;;;;;;17.63;8.18;;;7.80;99.90;;;;;;4921194;28;20051;-75
2023/11/11 01:10:09;;;;;;;19.13;8.43;;;7.80;99.90;;;;;;4912247;28;20531;-75
2023/11/11 01:12:38;;;;;;;21.23;9.48;;;7.90;99.90;;;;;;4900398;29;20061;-75
2023/11/11 01:15:11;;;;;;;16.63;8.18;;;7.80;99.90;;;;;;4918471;28;20039;-75
2023/11/11 01:17:42;;;;;;;19.80;8.50;;;7.80;99.90;;;;;;4909361;28;22198;-75
2023/11/11 01:20:12;;;;;;;22.67;8.10;;;7.80;99.90;;;;;;4918125;28;20835;-77
2023/11/11 01:22:40;;;;;;;18.60;7.85;;;7.80;99.90;;;;;;4901577;28;20066;-77
2023/11/11 01:25:09;;;;;;;18.17;8.45;;;7.80;99.90;;;;;;4918722;28;20133;-76
2023/11/11 01:27:38;;;;;;;15.60;7.38;;;7.80;99.90;;;;;;4907238;28;20058;-76
2023/11/11 01:30:08;;;;;;;18.08;8.18;;;7.80;99.90;;;;;;4915771;29;20066;-76
2023/11/11 01:32:36;;;;;;;20.08;8.43;;;7.80;99.90;;;;;;4931805;28;20947;-76
2023/11/11 01:35:07;;;;;;;19.00;7.78;;;7.80;99.90;;;;;;4896641;29;20043;-76
2023/11/11 01:37:36;;;;;;;20.45;8.10;;;7.80;99.90;;;;;;4905493;28;20059;-76
2023/11/11 01:40:06;;;;;;;15.50;6.63;;;7.80;99.90;;;;;;4918822;28;20542;-77
2023/11/11 01:42:35;;;;;;;19.60;7.65;;;7.90;99.90;;;;;;4901840;29;22630;-76
2023/11/11 01:45:04;;;;;;;16.92;7.60;;;7.90;99.90;;;;;;4903060;29;20146;-76
2023/11/11 01:47:33;;;;;;;17.65;8.40;;;7.90;99.90;;;;;;4893372;29;20133;-76
2023/11/11 01:50:02;;;;;;;20.25;8.25;;;7.90;99.90;;;;;;4916950;28;20186;-76
2023/11/11 01:52:32;;;;;;;18.20;7.80;;;7.80;99.90;;;;;;4903944;28;22608;-77
2023/11/11 01:55:03;;;;;;;19.95;8.13;;;7.80;99.90;;;;;;4919024;28;20055;-76
2023/11/11 01:57:32;;;;;;;16.88;7.93;;;7.90;99.90;;;;;;4901917;29;20062;-77
2023/11/11 02:00:05;;;;;;;19.55;7.82;;;7.80;99.90;;;;;;4903057;29;20055;-76
2023/11/11 02:02:34;;;;;;;18.75;8.85;;;7.80;99.90;;;;;;4918552;28;20320;-76
2023/11/11 02:05:03;;;;;;;19.63;7.30;;;7.80;99.90;;;;;;4915129;28;20047;-76
2023/11/11 02:07:34;;;;;;;19.23;8.50;;;7.90;99.90;;;;;;4902209;29;20075;-76
2023/11/11 02:10:02;;;;;;;21.38;8.15;;;7.90;99.90;;;;;;4901196;28;22520;-76
2023/11/11 02:12:32;;;;;;;25.15;8.98;;;7.90;99.90;;;;;;4904019;28;20091;-77
2023/11/11 02:15:01;;;;;;;21.23;8.48;;;7.90;99.90;;;;;;4914995;29;20048;-77
2023/11/11 02:17:30;;;;;;;23.15;8.77;;;7.80;99.90;;;;;;4903592;29;22461;-76
2023/11/11 02:20:00;;;;;;;23.77;9.25;;;7.90;99.90;;;;;;4911263;29;20127;-77
2023/11/11 02:22:29;;;;;;;22.50;8.30;;;7.90;99.90;;;;;;4904354;29;20224;-76
2023/11/11 02:24:59;;;;;;;24.92;10.23;;;7.90;99.90;;;;;;4926319;28;20517;-76
2023/11/11 02:27:31;;;;;;;29.10;10.40;;;7.90;99.90;;;;;;4919309;28;20055;-77
2023/11/11 02:30:02;;;;;;;30.52;10.98;;;7.80;99.90;;;;;;4917593;28;20058;-76
2023/11/11 02:32:30;;;;;;;31.33;12.57;;;7.80;99.90;;;;;;4904772;29;20716;-77
2023/11/11 02:34:59;;;;;;;22.95;9.35;;;7.70;99.90;;;;;;4919830;28;20067;-76
2023/11/11 02:37:27;;;;;;;31.52;10.57;;;7.70;99.90;;;;;;4917996;28;20051;-76
2023/11/11 02:39:55;;;;;;;29.30;10.70;;;7.70;99.90;;;;;;4902092;29;20055;-77
2023/11/11 02:42:25;;;;;;;28.52;10.43;;;7.80;99.90;;;;;;4922470;29;20090;-77
2023/11/11 02:44:54;;;;;;;32.05;10.55;;;7.80;99.90;;;;;;4920121;29;20181;-77
2023/11/11 02:47:22;;;;;;;27.33;10.23;;;7.80;99.90;;;;;;4904196;28;20185;-77
2023/11/11 02:49:51;;;;;;;27.33;9.98;;;7.80;99.90;;;;;;4919681;28;20138;-77
2023/11/11 02:52:19;;;;;;;23.33;9.77;;;7.80;99.90;;;;;;4915535;29;20190;-77
2023/11/11 02:54:48;;;;;;;29.63;9.65;;;7.80;99.90;;;;;;4909461;29;20059;-77
2023/11/11 02:57:16;;;;;;;28.38;10.43;;;7.80;99.90;;;;;;4919788;28;20062;-77
2023/11/11 02:59:46;;;;;;;29.45;9.95;;;7.80;99.90;;;;;;4916933;28;20047;-76
2023/11/11 03:02:15;;;;;;;30.48;10.15;;;7.80;99.90;;;;;;4905734;29;20047;-76
2023/11/11 03:04:44;;;;;;;30.35;10.20;;;7.80;99.90;;;;;;4903047;29;20449;-76
2023/11/11 03:07:12;;;;;;;31.65;9.88;;;7.80;99.90;;;;;;4925182;28;20051;-76
2023/11/11 03:09:41;;;;;;;29.08;9.43;;;7.70;99.90;;;;;;4924709;28;20400;-76
2023/11/11 03:12:11;;;;;;;27.98;9.35;;;7.80;99.90;;;;;;4901366;29;20051;-77
2023/11/11 03:14:40;;;;;;;31.67;9.75;;;7.80;99.90;;;;;;4904816;29;20134;-77
2023/11/11 03:17:11;;;;;;;35.47;10.10;;;7.80;99.90;;;;;;4921080;28;20051;-76
2023/11/11 03:19:40;;;;;;;31.40;8.75;;;7.90;99.90;;;;;;4921974;28;20071;-76
2023/11/11 03:22:09;;;;;;;34.97;10.38;;;7.90;99.90;;;;;;4929653;28;20047;-77
2023/11/11 03:24:38;;;;;;;31.00;9.07;;;7.90;99.90;;;;;;4925261;28;20183;-77
2023/11/11 03:27:06;;;;;;;29.58;10.23;;;7.90;99.90;;;;;;4907179;29;20132;-77
2023/11/11 03:29:35;;;;;;;32.75;9.02;;;8.00;99.90;;;;;;4929645;28;20054;-77
2023/11/11 03:32:04;;;;;;;30.08;9.13;;;7.90;99.90;;;;;;4933229;28;20454;-77
2023/11/11 03:34:33;;;;;;;30.08;9.55;;;7.90;99.90;;;;;;4906289;29;22463;-77
2023/11/11 03:37:02;;;;;;;30.63;9.52;;;7.90;99.90;;;;;;4920755;29;20054;-76
2023/11/11 03:39:31;;;;;;;30.67;9.18;;;7.90;99.90;;;;;;4905762;28;20055;-76
2023/11/11 03:42:00;;;;;;;32.17;9.45;;;7.90;99.90;;;;;;4903160;29;20066;-76
2023/11/11 03:44:28;;;;;;;36.58;10.38;;;7.90;99.90;;;;;;4893279;29;20063;-76
2023/11/11 03:46:56;;;;;;;33.55;10.45;;;7.90;99.90;;;;;;4892181;28;20047;-76
2023/11/11 03:49:25;;;;;;;34.72;10.32;;;7.90;99.90;;;;;;4904716;29;20693;-76
2023/11/11 03:51:54;;;;;;;32.75;9.15;;;7.90;99.90;;;;;;4930417;29;20054;-77
2023/11/11 03:54:23;;;;;;;33.67;10.23;;;7.90;99.90;;;;;;4917219;28;20078;-76
2023/11/11 03:56:51;;;;;;;29.83;8.98;;;7.90;99.90;;;;;;4918912;28;20054;-76
2023/11/11 03:59:20;;;;;;;40.13;10.65;;;7.90;99.90;;;;;;4915336;28;21042;-76
2023/11/11 04:01:49;;;;;;;37.35;11.35;;;7.90;99.90;;;;;;4908043;28;20059;-76
2023/11/11 04:04:17;;;;;;;37.03;11.48;;;7.90;99.90;;;;;;4899799;29;20569;-76
2023/11/11 04:06:46;;;;;;;35.38;9.88;;;7.90;99.90;;;;;;4894422;28;20051;-76
2023/11/11 04:09:16;;;;;;;33.13;10.55;;;7.80;99.90;;;;;;4903532;28;20142;-76
2023/11/11 04:11:44;;;;;;;38.22;10.07;;;7.90;99.90;;;;;;4920065;29;20070;-77
2023/11/11 04:14:13;;;;;;;41.70;11.13;;;7.80;99.90;;;;;;4919939;29;20051;-77
2023/11/11 04:16:44;;;;;;;41.28;12.20;;;7.80;99.90;;;;;;4919859;28;20046;-76
2023/11/11 04:19:15;;;;;;;36.72;11.75;;;7.80;99.90;;;;;;4930439;28;20055;-76
2023/11/11 04:21:49;;;;;;;33.13;10.77;;;7.80;99.90;;;;;;4902713;28;20614;-76
2023/11/11 04:24:20;;;;;;;33.42;11.07;;;7.80;99.90;;;;;;4902401;28;22241;-76
2023/11/11 04:26:48;;;;;;;39.22;11.20;;;7.80;99.90;;;;;;4902239;29;20043;-76
2023/11/11 04:29:16;;;;;;;35.75;10.82;;;7.80;99.90;;;;;;4900594;28;20730;-77
2023/11/11 04:31:45;;;;;;;39.45;12.05;;;7.90;99.90;;;;;;4905791;29;20055;-76
2023/11/11 04:34:13;;;;;;;42.38;11.27;;;7.90;99.90;;;;;;4904846;29;20058;-77
2023/11/11 04:36:42;;;;;;;42.08;11.05;;;7.80;99.90;;;;;;4921141;28;20122;-76
2023/11/11 04:39:10;;;;;;;40.15;11.65;;;7.80;99.90;;;;;;4920350;28;20051;-76
2023/11/11 04:41:40;;;;;;;40.28;11.90;;;7.80;99.90;;;;;;4929698;28;20044;-77
2023/11/11 04:44:09;;;;;;;43.83;11.90;;;7.80;99.90;;;;;;4920753;28;20265;-77
2023/11/11 04:46:38;;;;;;;41.38;11.95;;;7.80;99.90;;;;;;4923560;28;20086;-76
2023/11/11 04:49:07;;;;;;;40.63;10.13;;;7.80;99.90;;;;;;4904721;28;20051;-74
2023/11/11 04:51:35;;;;;;;40.25;10.95;;;7.80;99.90;;;;;;4917036;28;20055;-75
2023/11/11 04:54:05;;;;;;;36.92;9.90;;;7.80;99.90;;;;;;4898597;29;20059;-75
2023/11/11 04:56:33;;;;;;;39.45;10.70;;;7.90;99.90;;;;;;4923780;28;20082;-74
2023/11/11 04:59:04;;;;;;;45.47;12.15;;;7.80;99.90;;;;;;4923781;29;20043;-75
2023/11/11 05:01:32;;;;;;;35.28;10.93;;;7.70;99.90;;;;;;4913181;28;20046;-74
2023/11/11 05:04:01;;;;;;;38.08;10.60;;;7.80;99.90;;;;;;4923318;28;20114;-74
2023/11/11 05:06:29;;;;;;;41.20;11.98;;;7.90;99.90;;;;;;4913630;29;20047;-74
2023/11/11 05:08:57;;;;;;;38.15;9.68;;;7.80;99.90;;;;;;4919563;28;20054;-75
2023/11/11 05:11:29;;;;;;;31.98;10.18;;;7.80;99.90;;;;;;4912175;28;20061;-75
2023/11/11 05:13:59;;;;;;;39.60;12.80;;;7.80;99.90;;;;;;4915721;28;20051;-75
2023/11/11 05:16:39;;;;;;;41.42;11.77;;;7.80;99.90;;;;;;4913561;28;20075;-74
2023/11/11 05:19:08;;;;;;;39.22;11.32;;;7.80;99.90;;;;;;4916023;28;20059;-74
2023/11/11 05:21:37;;;;;;;40.10;10.82;;;7.70;99.90;;;;;;4916069;28;20051;-74
2023/11/11 05:24:06;;;;;;;37.50;11.23;;;7.80;99.90;;;;;;4915073;28;20051;-74
2023/11/11 05:26:35;;;;;;;35.15;10.82;;;7.70;99.90;;;;;;4911807;28;20066;-75
2023/11/11 05:29:04;;;;;;;31.17;10.50;;;7.80;99.90;;;;;;4924656;28;20073;-75
2023/11/11 05:31:33;;;;;;;36.70;10.65;;;7.80;99.90;;;;;;4921547;28;20062;-75
2023/11/11 05:34:03;;;;;;;36.25;10.90;;;7.80;99.90;;;;;;4914502;28;20055;-75
2023/11/11 05:36:33;;;;;;;33.78;9.50;;;7.80;99.90;;;;;;4921522;28;22606;-74
2023/11/11 05:39:02;;;;;;;38.97;10.88;;;7.80;99.90;;;;;;4911174;28;20062;-74
2023/11/11 05:41:30;;;;;;;38.95;11.15;;;7.80;99.90;;;;;;4914842;28;20475;-74
2023/11/11 05:43:59;;;;;;;33.95;10.98;;;7.80;99.90;;;;;;4912968;28;20789;-74
2023/11/11 05:46:27;;;;;;;36.80;11.50;;;7.80;99.90;;;;;;4924910;28;20643;-75
2023/11/11 05:48:57;;;;;;;30.73;10.68;;;7.80;99.90;;;;;;4902559;28;20062;-74
2023/11/11 05:51:25;;;;;;;35.83;11.48;;;7.80;99.90;;;;;;4900079;28;20080;-75
2023/11/11 05:53:58;;;;;;;36.13;11.55;;;7.80;99.90;;;;;;4912693;28;20050;-75
2023/11/11 05:56:26;;;;;;;32.58;11.93;;;7.80;99.90;;;;;;4923006;29;20040;-75
2023/11/11 05:58:58;;;;;;;32.28;11.23;;;7.80;99.90;;;;;;4920510;28;20039;-74
2023/11/11 06:01:27;;;;;;;31.13;10.57;;;7.90;99.90;;;;;;4913138;28;20066;-74
2023/11/11 06:03:57;;;;;;;34.97;11.30;;;7.90;99.90;;;;;;4899990;28;20059;-75
2023/11/11 06:06:25;;;;;;;31.45;10.82;;;7.80;99.90;;;;;;4916973;28;20078;-75
2023/11/11 06:08:54;;;;;;;30.63;9.45;;;7.80;99.90;;;;;;4915502;28;20109;-75
2023/11/11 06:11:22;;;;;;;29.00;9.63;;;7.80;99.90;;;;;;4914991;28;20134;-75
2023/11/11 06:13:53;;;;;;;31.55;10.60;;;7.80;99.90;;;;;;4912778;28;20533;-75
2023/11/11 06:16:21;;;;;;;31.27;10.85;;;7.80;99.90;;;;;;4929884;28;20058;-74
2023/11/11 06:18:50;;;;;;;31.92;10.27;;;7.80;99.90;;;;;;4896283;29;22111;-74
2023/11/11 06:21:20;;;;;;;30.00;10.00;;;7.80;99.90;;;;;;4889163;29;20075;-74
2023/11/11 06:23:48;;;;;;;29.77;10.48;;;7.80;99.90;;;;;;4916357;28;20149;-74
2023/11/11 06:26:17;;;;;;;29.42;10.00;;;7.80;99.90;;;;;;4913589;28;20062;-74
2023/11/11 06:28:47;;;;;;;27.83;9.40;;;7.80;99.90;;;;;;4923852;28;20051;-75
2023/11/11 06:31:15;;;;;;;27.52;10.32;;;7.80;99.90;;;;;;4909011;28;20087;-74
2023/11/11 06:33:44;;;;;;;28.48;8.93;;;7.80;99.90;;;;;;4923568;28;20059;-75
2023/11/11 06:36:13;;;;;;;26.85;8.93;;;7.80;99.90;;;;;;4923178;28;20062;-75
2023/11/11 06:38:43;;;;;;;31.02;10.18;;;7.90;99.90;;;;;;4897656;29;20090;-75
2023/11/11 06:41:11;;;;;;;28.77;10.63;;;7.80;99.90;;;;;;4924629;28;20510;-74
2023/11/11 06:43:40;;;;;;;37.33;10.63;;;7.80;99.90;;;;;;4923401;28;20711;-74
2023/11/11 06:46:08;;;;;;;32.75;11.35;;;7.80;99.90;;;;;;4907034;28;20051;-75
2023/11/11 06:48:36;;;;;;;33.38;12.38;;;7.80;99.90;;;;;;4909588;28;20082;-75
2023/11/11 06:51:05;;;;;;;47.20;17.52;;;7.80;99.90;;;;;;4895196;28;20051;-75
2023/11/11 06:53:33;;;;;;;35.50;14.30;;;7.80;99.90;;;;;;4896393;28;20055;-75
2023/11/11 06:56:05;;;;;;;33.83;13.63;;;7.80;99.90;;;;;;4916122;28;20047;-74
2023/11/11 06:58:33;;;;;;;33.90;13.85;;;7.80;99.90;;;;;;4916049;28;20051;-75
2023/11/11 07:01:02;;;;;;;30.25;13.95;;;7.80;99.90;;;;;;4915438;28;20210;-74
2023/11/11 07:03:34;;;;;;;33.33;12.32;;;7.80;99.90;;;;;;4893498;28;20134;-75
2023/11/11 07:06:05;;;;;;;24.58;10.40;;;7.80;99.90;;;;;;4900344;28;20121;-74
2023/11/11 07:08:34;;;;;;;31.42;11.90;;;7.80;99.90;;;;;;4901511;29;20396;-74
2023/11/11 07:11:04;;;;;;;26.98;10.98;;;7.90;99.90;;;;;;4901730;29;20054;-75
2023/11/11 07:13:32;;;;;;;27.90;11.43;;;7.90;99.90;;;;;;4902821;29;20070;-75
2023/11/11 07:16:01;;;;;;;30.25;11.60;;;7.90;99.90;;;;;;4901983;29;20071;-74
2023/11/11 07:18:29;;;;;;;27.67;11.48;;;7.90;99.90;;;;;;4901260;29;20081;-75
2023/11/11 07:20:57;;;;;;;35.22;13.63;;;7.90;99.90;;;;;;4921275;28;20131;-75
2023/11/11 07:23:27;;;;;;;30.30;11.95;;;7.90;99.90;;;;;;4921220;28;20184;-75
2023/11/11 07:25:56;;;;;;;32.60;11.98;;;7.90;99.90;;;;;;4924085;28;20055;-75
2023/11/11 07:28:26;;;;;;;29.73;12.55;;;7.90;99.90;;;;;;4918533;28;20054;-75
2023/11/11 07:30:55;;;;;;;33.75;13.35;;;7.90;99.90;;;;;;4908445;29;20223;-75
2023/11/11 07:33:23;;;;;;;33.50;14.20;;;7.90;99.90;;;;;;4941591;28;20078;-75
2023/11/11 07:35:52;;;;;;;33.80;13.63;;;7.90;99.90;;;;;;4904600;28;20094;-74
2023/11/11 07:38:20;;;;;;;36.83;15.30;;;7.90;99.90;;;;;;4918951;28;20046;-75
2023/11/11 07:40:48;;;;;;;44.65;18.08;;;8.00;99.90;;;;;;4902815;29;20063;-75
2023/11/11 07:43:16;;;;;;;39.13;17.38;;;8.00;99.90;;;;;;4903298;29;20055;-74
2023/11/11 07:45:48;;;;;;;31.42;13.93;;;8.00;99.90;;;;;;4921536;28;20059;-75
2023/11/11 07:48:18;;;;;;;30.25;13.13;;;7.90;99.90;;;;;;4928916;28;20796;-75
2023/11/11 07:50:47;;;;;;;36.25;14.35;;;7.90;99.90;;;;;;4904844;29;20055;-75
2023/11/11 07:53:17;;;;;;;32.28;12.80;;;7.90;99.90;;;;;;4902656;28;20098;-74
2023/11/11 07:55:45;;;;;;;34.97;12.82;;;7.90;99.90;;;;;;4899098;28;20074;-75
2023/11/11 07:58:14;;;;;;;34.70;13.45;;;8.00;99.90;;;;;;4918025;28;20047;-75
2023/11/11 08:00:47;;;;;;;36.97;12.45;;;8.00;99.90;;;;;;4912082;29;20059;-75
2023/11/11 08:03:26;;;;;;;32.85;12.52;;;8.00;99.90;;;;;;4919327;28;20057;-75
2023/11/11 08:05:55;;;;;;;33.40;12.00;;;8.00;99.90;;;;;;4928174;28;20039;-76
2023/11/11 08:08:24;;;;;;;29.90;12.20;;;8.10;99.90;;;;;;4920138;28;20049;-75
2023/11/11 08:10:52;;;;;;;33.10;11.25;;;8.00;99.90;;;;;;4911258;28;20047;-75
2023/11/11 08:13:21;;;;;;;34.22;13.00;;;8.00;99.90;;;;;;4920224;29;20086;-75
2023/11/11 08:15:50;;;;;;;35.60;12.40;;;7.90;99.90;;;;;;4917932;28;20059;-75
2023/11/11 08:18:18;;;;;;;28.52;10.90;;;7.90;99.90;;;;;;4919513;28;22732;-75
2023/11/11 08:20:47;;;;;;;31.00;12.00;;;8.00;99.90;;;;;;4917176;28;20047;-75
2023/11/11 08:23:15;;;;;;;27.38;10.05;;;8.00;99.90;;;;;;4934585;28;20055;-75
2023/11/11 08:25:44;;;;;;;28.70;10.57;;;8.00;99.90;;;;;;4903242;29;20090;-76
2023/11/11 08:28:12;;;;;;;25.25;11.05;;;7.90;99.90;;;;;;4915062;28;20075;-75
2023/11/11 08:30:41;;;;;;;26.02;10.10;;;8.00;99.90;;;;;;4903530;29;20059;-76
2023/11/11 08:33:11;;;;;;;30.33;11.65;;;8.00;99.90;;;;;;4903913;28;20051;-76
2023/11/11 08:35:39;;;;;;;25.75;10.68;;;8.00;99.90;;;;;;4901686;28;20062;-76
2023/11/11 08:38:08;;;;;;;25.38;10.18;;;8.00;99.90;;;;;;4903114;29;22399;-75
2023/11/11 08:40:36;;;;;;;25.55;10.43;;;8.00;99.90;;;;;;4917330;28;20058;-75
2023/11/11 08:43:05;;;;;;;24.73;10.85;;;8.00;99.90;;;;;;4920250;28;20129;-75
2023/11/11 08:45:33;;;;;;;24.38;10.40;;;8.00;99.90;;;;;;4917572;28;20175;-76
2023/11/11 08:48:01;;;;;;;25.10;11.95;;;8.00;99.90;;;;;;4920331;28;20132;-76
2023/11/11 08:50:31;;;;;;;24.23;10.77;;;8.00;99.90;;;;;;4919169;28;20838;-75
2023/11/11 08:53:00;;;;;;;22.83;10.30;;;8.00;99.90;;;;;;4913962;28;20838;-77
2023/11/11 08:55:28;;;;;;;22.60;10.10;;;8.00;99.90;;;;;;4924174;28;20058;-76
2023/11/11 08:57:56;;;;;;;22.33;10.55;;;7.90;99.90;;;;;;4906143;29;20050;-75
2023/11/11 09:00:25;;;;;;;22.52;11.15;;;7.90;99.90;;;;;;4933405;28;20093;-75
2023/11/11 09:02:54;;;;;;;21.52;9.82;;;8.00;99.90;;;;;;4916430;28;20043;-77
2023/11/11 09:05:23;;;;;;;20.63;9.38;;;7.90;99.90;;;;;;4917944;28;20129;-75
2023/11/11 09:07:53;;;;;;;22.05;10.02;;;8.00;99.90;;;;;;4916210;28;20048;-76
2023/11/11 09:10:21;;;;;;;23.23;11.05;;;8.00;99.90;;;;;;4916795;28;20185;-76
2023/11/11 09:12:50;;;;;;;21.90;9.95;;;7.90;99.90;;;;;;4924335;29;20423;-75
2023/11/11 09:15:19;;;;;;;20.02;10.43;;;8.00;99.90;;;;;;4923571;28;20079;-76
2023/11/11 09:17:48;;;;;;;21.52;10.07;;;8.00;99.90;;;;;;4932949;28;20134;-76
2023/11/11 09:20:17;;;;;;;26.27;12.48;;;8.00;99.90;;;;;;4915926;28;20051;-75
2023/11/11 09:22:46;;;;;;;25.10;11.65;;;8.00;99.90;;;;;;4915825;28;20047;-75
2023/11/11 09:25:15;;;;;;;26.83;13.10;;;8.00;99.90;;;;;;4917020;28;21025;-76
2023/11/11 09:27:44;;;;;;;28.98;15.77;;;8.00;99.90;;;;;;4913442;28;20067;-76
2023/11/11 09:30:13;;;;;;;29.92;14.85;;;8.10;99.90;;;;;;4919935;28;20078;-75
2023/11/11 09:32:41;;;;;;;26.58;13.20;;;8.10;99.90;;;;;;4931866;28;20051;-76
2023/11/11 09:35:13;;;;;;;26.55;13.45;;;8.10;99.90;;;;;;4918018;28;20047;-75
2023/11/11 09:37:42;;;;;;;25.85;12.07;;;8.20;99.90;;;;;;4895964;28;22111;-76
2023/11/11 09:40:12;;;;;;;22.35;11.68;;;8.10;99.90;;;;;;4896161;28;20190;-75
2023/11/11 09:42:42;;;;;;;21.35;11.30;;;8.00;99.90;;;;;;4884563;28;20277;-75
2023/11/11 09:45:14;;;;;;;22.67;11.82;;;8.10;99.90;;;;;;4896259;28;20062;-77
2023/11/11 09:47:48;;;;;;;23.35;11.13;;;8.00;99.90;;;;;;4900741;28;20074;-76
2023/11/11 09:50:22;;;;;;;26.08;12.35;;;8.00;99.90;;;;;;4882208;28;20086;-76
2023/11/11 09:52:52;;;;;;;25.38;13.07;;;8.10;99.90;;;;;;4899723;28;20070;-75
2023/11/11 09:55:21;;;;;;;25.17;11.98;;;8.10;99.90;;;;;;4893675;28;20051;-75
2023/11/11 09:57:52;;;;;;;22.58;11.60;;;8.10;99.90;;;;;;4876622;28;20632;-76
2023/11/11 10:00:22;;;;;;;22.67;11.30;;;8.10;99.90;;;;;;4900632;29;20046;-76
2023/11/11 10:02:51;;;;;;;21.88;11.55;;;8.10;99.90;;;;;;4916238;28;20093;-75
2023/11/11 10:05:20;;;;;;;24.75;11.88;;;8.10;99.90;;;;;;4923549;29;20557;-75
2023/11/11 10:07:48;;;;;;;23.08;11.73;;;8.10;99.90;;;;;;4916438;28;20063;-75
2023/11/11 10:10:17;;;;;;;25.67;11.88;;;8.10;99.90;;;;;;4915944;28;20048;-75
2023/11/11 10:12:46;;;;;;;22.17;11.63;;;8.10;99.90;;;;;;4903056;29;20058;-76
2023/11/11 10:15:16;;;;;;;24.00;10.68;;;8.10;99.90;;;;;;4902903;29;20066;-75
2023/11/11 10:17:45;;;;;;;22.30;10.52;;;8.00;99.90;;;;;;4903589;28;20056;-75
2023/11/11 10:20:14;;;;;;;22.42;11.13;;;8.10;99.90;;;;;;4902365;29;20146;-75
2023/11/11 10:22:45;;;;;;;24.42;12.70;;;8.10;99.90;;;;;;4924076;28;20134;-75
2023/11/11 10:25:17;;;;;;;23.10;11.40;;;8.10;99.90;;;;;;4930965;28;20134;-76
2023/11/11 10:27:51;;;;;;;20.95;10.45;;;8.10;99.90;;;;;;4921852;28;20537;-76
2023/11/11 10:30:23;;;;;;;24.88;12.07;;;8.10;99.90;;;;;;4918425;28;20059;-76
2023/11/11 10:32:53;;;;;;;21.73;11.43;;;8.10;99.90;;;;;;4895319;28;20058;-75
2023/11/11 10:35:24;;;;;;;26.20;12.70;;;8.20;99.90;;;;;;4903507;29;20059;-75
2023/11/11 10:37:54;;;;;;;29.02;13.85;;;8.20;99.90;;;;;;4906501;29;20059;-75
2023/11/11 10:40:23;;;;;;;30.73;13.85;;;8.20;99.90;;;;;;4922186;28;20046;-75
2023/11/11 10:42:51;;;;;;;31.35;15.88;;;8.20;99.90;;;;;;4919166;28;20550;-75
2023/11/11 10:45:21;;;;;;;29.10;15.10;;;8.20;99.90;;;;;;4935798;28;20132;-75
2023/11/11 10:47:50;;;;;;;31.15;15.70;;;8.30;99.90;;;;;;4898401;28;20059;-75
2023/11/11 10:50:18;;;;;;;29.60;16.65;;;8.30;99.90;;;;;;4901476;28;20047;-77
2023/11/11 10:52:47;;;;;;;24.38;12.82;;;8.30;99.90;;;;;;4906146;28;20055;-78
2023/11/11 10:55:17;;;;;;;47.13;25.70;;;8.20;99.90;;;;;;4920795;29;20063;-78
2023/11/11 10:57:47;;;;;;;28.92;13.57;;;8.30;99.90;;;;;;4910621;29;20059;-78
2023/11/11 11:00:20;;;;;;;39.15;22.02;;;8.30;99.90;;;;;;4919259;28;21026;-78
2023/11/11 11:02:54;;;;;;;29.05;16.02;;;8.20;99.90;;;;;;4910176;28;20204;-78
2023/11/11 11:05:30;;;;;;;27.27;14.15;;;8.20;99.90;;;;;;4903019;28;20062;-77
2023/11/11 11:08:06;;;;;;;25.23;12.82;;;8.30;99.90;;;;;;4883696;29;20122;-77
2023/11/11 11:10:49;;;;;;;28.55;13.80;;;8.20;99.90;;;;;;4908637;28;20066;-78
2023/11/11 11:13:19;;;;;;;24.60;12.85;;;8.20;99.90;;;;;;4923308;28;21307;-77
2023/11/11 11:15:48;;;;;;;21.95;13.02;;;8.20;99.90;;;;;;4891508;28;20867;-77
2023/11/11 11:18:24;;;;;;;28.17;13.93;;;8.20;99.90;;;;;;4907007;28;20043;-77
2023/11/11 11:20:54;;;;;;;20.00;11.45;;;8.20;99.90;;;;;;4891029;28;22306;-77
2023/11/11 11:23:23;;;;;;;19.83;9.80;;;8.20;99.90;;;;;;4912357;29;20062;-78
2023/11/11 11:25:52;;;;;;;22.90;9.80;;;8.20;99.90;;;;;;4914944;28;20188;-77
2023/11/11 11:28:24;;;;;;;20.13;10.43;;;8.20;99.90;;;;;;4909457;28;21608;-77
2023/11/11 11:30:55;;;;;;;21.88;12.75;;;8.20;99.90;;;;;;4916731;28;20507;-77
2023/11/11 11:33:28;;;;;;;21.92;11.52;;;8.20;99.90;;;;;;4900126;29;20056;-78
2023/11/11 11:36:01;;;;;;;19.88;11.05;;;8.20;99.90;;;;;;4893635;29;20051;-77
2023/11/11 11:38:34;;;;;;;19.42;10.65;;;8.20;99.90;;;;;;4909865;28;20047;-76
2023/11/11 11:41:05;;;;;;;21.92;10.77;;;8.10;99.90;;;;;;4888385;28;20070;-77
2023/11/11 11:43:35;;;;;;;21.05;10.40;;;8.20;99.90;;;;;;4923609;28;20277;-77
2023/11/11 11:46:05;;;;;;;18.73;9.63;;;8.20;99.90;;;;;;4907824;28;20051;-77
2023/11/11 11:48:39;;;;;;;23.25;11.10;;;8.10;99.90;;;;;;4898812;29;20047;-78
2023/11/11 11:51:09;;;;;;;21.50;12.20;;;8.20;99.90;;;;;;4910328;28;20134;-77
2023/11/11 11:53:45;;;;;;;27.58;12.57;;;8.10;99.90;;;;;;4909117;28;20051;-77
2023/11/11 11:56:28;;;;;;;24.13;12.27;;;8.20;99.90;;;;;;4889886;28;20062;-77
2023/11/11 11:58:58;;;;;;;;;;;8.10;99.90;;;;;;4919191;28;20055;-76
2023/11/11 12:01:28;;;;;;;27.73;14.80;;;8.20;99.90;;;;;;4917476;28;19930;-76
2023/11/11 12:03:59;;;;;;;24.83;13.20;;;8.20;99.90;;;;;;4903072;28;20059;-77
2023/11/11 12:06:29;;;;;;;26.37;13.13;;;8.20;99.90;;;;;;4886050;29;20803;-76
2023/11/11 12:08:59;;;;;;;27.63;14.90;;;8.20;99.90;;;;;;4903979;28;20047;-77
2023/11/11 12:11:30;;;;;;;29.40;15.90;;;8.30;99.90;;;;;;4906403;28;20054;-76
2023/11/11 12:14:03;;;;;;;28.23;14.88;;;8.30;99.90;;;;;;4899464;28;20046;-77
2023/11/11 12:16:39;;;;;;;29.42;16.85;;;8.30;99.90;;;;;;4898059;28;20062;-77
2023/11/11 12:19:12;;;;;;;24.00;13.95;;;8.30;99.90;;;;;;4910849;28;20687;-78
2023/11/11 12:21:43;;;;;;;30.88;16.55;;;8.20;99.90;;;;;;4910890;28;20046;-78
2023/11/11 12:24:12;;;;;;;19.48;10.10;;;8.20;99.90;;;;;;4907936;28;20065;-77
2023/11/11 12:26:42;;;;;;;14.63;7.22;;;8.10;99.90;;;;;;4897550;29;20170;-77
2023/11/11 12:29:11;;;;;;;12.43;6.13;;;8.00;99.90;;;;;;4909760;28;20067;-76
2023/11/11 12:31:50;;;;;;;12.80;6.57;;;8.10;99.90;;;;;;4884680;29;20058;-76
2023/11/11 12:34:22;;;;;;;10.52;5.55;;;8.00;99.90;;;;;;4920036;28;20055;-79
2023/11/11 12:36:53;;;;;;;6.75;3.70;;;8.00;99.90;;;;;;4933393;28;20055;-77
2023/11/11 12:39:22;;;;;;;10.52;4.90;;;8.00;99.90;;;;;;4910346;28;20047;-75
2023/11/11 12:41:56;;;;;;;8.70;5.07;;;7.90;99.90;;;;;;4892412;29;20324;-77
2023/11/11 12:44:26;;;;;;;11.30;6.65;;;7.90;99.90;;;;;;4891990;29;20047;-77
2023/11/11 12:46:56;;;;;;;9.70;4.85;;;7.90;99.90;;;;;;4897232;28;22351;-77
2023/11/11 12:49:27;;;;;;;8.95;5.18;;;7.90;99.90;;;;;;4916698;28;20079;-75
2023/11/11 12:51:58;;;;;;;11.07;4.95;;;7.90;99.90;;;;;;4920172;28;20085;-79